Time;durP1;ratioP1;P1;durP2;ratioP2;P2;SDS_P1;SDS_P2;PMS_P1;PMS_P2;Temp;Humidity;BMP_temperature;BMP_pressure;BME280_temperature;BME280_humidity;BME280_pressure;Samples;Min_cycle;Max_cycle;Signal;HPM_P1;HPM_P2
2022/10/16 00:01:17;;;;;;;12.50;11.05;;;;;;;10.35;64.83;95553.38;5086785;28;20196;-64
2022/10/16 00:03:49;;;;;;;13.35;11.45;;;;;;;10.43;64.31;95558.78;5084402;28;20267;-64
2022/10/16 00:06:17;;;;;;;15.97;11.23;;;;;;;10.35;64.58;95567.34;5068708;28;20225;-64
2022/10/16 00:08:43;;;;;;;12.77;11.45;;;;;;;10.15;65.24;95557.72;5089006;28;20228;-65
2022/10/16 00:11:12;;;;;;;14.50;12.10;;;;;;;10.17;65.47;95561.06;5083448;28;20276;-65
2022/10/16 00:13:39;;;;;;;14.43;11.77;;;;;;;10.18;65.46;95561.88;5084473;28;20278;-65
2022/10/16 00:16:05;;;;;;;12.07;10.80;;;;;;;10.18;65.45;95567.13;5088155;28;20212;-64
2022/10/16 00:18:31;;;;;;;13.02;11.07;;;;;;;10.23;65.35;95564.94;5083260;28;20215;-64
2022/10/16 00:21:22;;;;;;;12.88;10.98;;;;;;;10.23;65.57;95570.19;5088130;28;20216;-64
2022/10/16 00:23:54;;;;;;;13.18;11.77;;;;;;;10.33;64.86;95565.81;5085340;28;20196;-64
2022/10/16 00:26:20;;;;;;;12.68;11.30;;;;;;;10.30;64.86;95571.34;5078052;28;20180;-63
2022/10/16 00:28:47;;;;;;;13.52;10.40;;;;;;;10.11;64.87;95565.06;5081174;28;20196;-65
2022/10/16 00:31:13;;;;;;;11.45;10.35;;;;;;;10.06;65.40;95576.94;5084701;28;20223;-63
2022/10/16 00:33:39;;;;;;;12.32;11.13;;;;;;;10.07;65.04;95579.41;5083257;28;20184;-64
2022/10/16 00:36:07;;;;;;;11.48;10.27;;;;;;;10.27;64.51;95582.97;5083527;28;20196;-65
2022/10/16 00:38:33;;;;;;;13.23;10.40;;;;;;;10.17;64.36;95587.34;5086363;28;20184;-64
2022/10/16 00:40:58;;;;;;;11.43;10.33;;;;;;;9.80;65.70;95587.91;5088373;28;20189;-64
2022/10/16 00:43:41;;;;;;;14.73;10.17;;;;;;;9.77;65.84;95584.72;5086080;28;20195;-64
2022/10/16 00:46:41;;;;;;;11.80;10.60;;;;;;;9.86;65.43;95583.94;5081928;28;20188;-64
2022/10/16 00:49:15;;;;;;;11.43;10.23;;;;;;;10.07;64.75;95574.16;5077736;28;20224;-64
2022/10/16 00:51:47;;;;;;;14.25;10.40;;;;;;;10.07;64.29;95576.78;5083610;28;20184;-64
2022/10/16 00:54:21;;;;;;;11.70;10.50;;;;;;;9.91;64.68;95582.56;5084125;28;20184;-64
2022/10/16 00:56:47;;;;;;;12.10;9.77;;;;;;;9.70;65.55;95580.03;5094535;28;20214;-64
2022/10/16 00:59:20;;;;;;;11.30;9.77;;;;;;;9.60;65.81;95571.28;5077033;28;20219;-64
2022/10/16 01:01:46;;;;;;;11.27;10.17;;;;;;;9.68;65.97;95587.19;5084874;28;20196;-64
2022/10/16 01:04:11;;;;;;;10.05;9.02;;;;;;;9.72;65.92;95587.75;5086921;28;20218;-65
2022/10/16 01:06:46;;;;;;;11.27;9.75;;;;;;;9.71;65.65;95589.56;5080838;28;20212;-64
2022/10/16 01:09:14;;;;;;;11.47;9.60;;;;;;;9.69;65.50;95594.09;5084878;28;20244;-64
2022/10/16 01:12:01;;;;;;;11.07;9.90;;;;;;;9.54;66.05;95595.41;5082690;28;20215;-64
2022/10/16 01:14:34;;;;;;;11.70;10.20;;;;;;;9.53;65.91;95595.56;5077749;28;20184;-64
2022/10/16 01:17:11;;;;;;;14.48;10.35;;;;;;;9.51;65.96;95595.66;5096668;28;20185;-64
2022/10/16 01:20:06;;;;;;;11.80;10.60;;;;;;;9.43;66.38;95588.44;5097099;28;20183;-64
2022/10/16 01:23:09;;;;;;;12.00;9.47;;;;;;;9.43;66.77;95590.25;5008178;28;20229;-64
2022/10/16 01:26:12;;;;;;;15.33;11.40;;;;;;;9.39;66.79;95580.97;4971179;28;20219;-64
2022/10/16 01:29:00;;;;;;;11.23;10.13;;;;;;;9.33;66.77;95573.59;4972859;28;20195;-64
2022/10/16 01:31:30;;;;;;;14.57;9.70;;;;;;;9.37;66.46;95575.03;4957075;28;20202;-64
2022/10/16 01:34:05;;;;;;;10.80;9.60;;;;;;;9.32;65.91;95572.78;4973750;28;20212;-64
2022/10/16 01:36:56;;;;;;;10.57;8.70;;;;;;;9.32;65.85;95578.03;4957319;28;20214;-64
2022/10/16 01:39:25;;;;;;;9.20;8.23;;;;;;;9.35;65.56;95575.16;4938250;29;20240;-64
2022/10/16 01:42:18;;;;;;;8.80;7.93;;;;;;;9.38;65.51;95574.06;4940876;29;20308;-65
2022/10/16 01:44:46;;;;;;;8.77;7.37;;;;;;;9.38;65.43;95574.06;4942166;29;20227;-65
2022/10/16 01:47:14;;;;;;;8.57;7.77;;;;;;;9.21;65.86;95578.94;4937372;29;20233;-65
2022/10/16 01:49:41;;;;;;;8.93;8.03;;;;;;;9.29;65.64;95583.53;4969822;28;20197;-65
2022/10/16 01:52:12;;;;;;;12.03;8.30;;;;;;;9.25;65.86;95585.59;4967559;28;20200;-64
2022/10/16 01:54:40;;;;;;;9.05;7.80;;;;;;;9.15;66.07;95582.09;4970047;28;20220;-64
2022/10/16 01:57:08;;;;;;;11.35;8.50;;;;;;;9.07;66.82;95592.41;4938440;29;20205;-66
2022/10/16 01:59:40;;;;;;;9.43;8.30;;;;;;;9.10;66.85;95588.69;4960691;28;20254;-65
2022/10/16 02:02:09;;;;;;;9.82;8.52;;;;;;;9.23;66.25;95587.53;5004387;28;20202;-65
2022/10/16 02:04:40;;;;;;;8.50;7.70;;;;;;;9.10;66.17;95586.88;5030363;28;20217;-66
2022/10/16 02:07:06;;;;;;;9.75;8.75;;;;;;;9.07;66.77;95592.41;5014744;28;20277;-65
2022/10/16 02:09:35;;;;;;;11.53;8.63;;;;;;;8.99;67.07;95589.59;5033560;28;20307;-65
2022/10/16 02:12:06;;;;;;;12.33;9.30;;;;;;;9.09;67.02;95594.88;5022137;28;20197;-64
2022/10/16 02:14:32;;;;;;;11.43;9.37;;;;;;;9.08;67.18;95603.72;5012690;28;20309;-65
2022/10/16 02:16:58;;;;;;;10.43;9.50;;;;;;;9.12;66.99;95594.66;5070676;28;20204;-65
2022/10/16 02:19:23;;;;;;;10.27;9.27;;;;;;;9.05;67.07;95597.75;5088708;28;20180;-66
2022/10/16 02:21:53;;;;;;;11.33;9.77;;;;;;;9.08;67.22;95596.69;5095418;28;20275;-67
2022/10/16 02:24:18;;;;;;;11.50;9.88;;;;;;;9.11;67.43;95609.53;5083055;28;20208;-64
2022/10/16 02:26:57;;;;;;;9.43;8.50;;;;;;;9.17;67.23;95614.28;5084375;28;20200;-63
2022/10/16 02:29:26;;;;;;;10.20;9.13;;;;;;;8.61;68.69;95618.00;5080896;28;20192;-63
2022/10/16 02:31:56;;;;;;;10.87;9.37;;;;;;;8.52;69.48;95615.28;5089253;28;20188;-63
2022/10/16 02:34:24;;;;;;;11.10;10.03;;;;;;;8.76;68.94;95612.47;5088423;28;20215;-65
2022/10/16 02:36:51;;;;;;;10.47;9.40;;;;;;;8.92;67.58;95610.22;5086905;28;20199;-66
2022/10/16 02:39:17;;;;;;;11.47;8.63;;;;;;;8.83;67.24;95609.22;5086080;28;20227;-64
2022/10/16 02:41:42;;;;;;;10.40;9.33;;;;;;;9.03;66.04;95612.81;5084755;28;20192;-64
2022/10/16 02:44:08;;;;;;;10.73;9.43;;;;;;;8.77;66.45;95616.75;5090112;28;20204;-64
2022/10/16 02:46:33;;;;;;;10.60;9.47;;;;;;;8.80;66.55;95617.34;5090948;28;20288;-64
2022/10/16 02:48:59;;;;;;;11.40;10.23;;;;;;;8.50;67.41;95619.81;5084418;28;20188;-64
2022/10/16 02:51:24;;;;;;;12.87;11.67;;;;;;;8.55;68.26;95622.91;5087211;28;20193;-64
2022/10/16 02:53:49;;;;;;;12.68;11.38;;;;;;;8.58;67.75;95617.41;5082546;28;20193;-64
2022/10/16 02:56:15;;;;;;;12.37;10.97;;;;;;;8.64;68.03;95635.28;5086750;28;20194;-64
2022/10/16 02:58:40;;;;;;;12.40;11.30;;;;;;;8.82;67.49;95625.91;5088865;28;20191;-64
2022/10/16 03:01:06;;;;;;;12.80;11.33;;;;;;;8.86;67.23;95631.72;5089068;28;20208;-64
2022/10/16 03:03:31;;;;;;;12.27;10.97;;;;;;;8.62;68.02;95631.94;5088105;28;20201;-63
2022/10/16 03:05:57;;;;;;;12.40;11.10;;;;;;;8.64;67.93;95637.06;5082547;28;20272;-63
2022/10/16 03:08:24;;;;;;;12.93;11.15;;;;;;;8.65;67.72;95639.56;5080368;28;20228;-63
2022/10/16 03:10:51;;;;;;;13.63;11.00;;;;;;;8.48;68.29;95634.84;5083103;28;20195;-63
2022/10/16 03:13:16;;;;;;;11.63;10.53;;;;;;;8.53;68.11;95643.19;5086860;28;20196;-64
2022/10/16 03:15:42;;;;;;;13.57;10.53;;;;;;;8.44;67.94;95643.91;5085912;28;20278;-63
2022/10/16 03:18:07;;;;;;;12.37;11.17;;;;;;;8.46;68.00;95647.25;5085538;28;20191;-63
2022/10/16 03:20:33;;;;;;;12.13;10.83;;;;;;;8.49;67.80;95641.75;5084505;28;20193;-64
2022/10/16 03:22:58;;;;;;;13.53;11.10;;;;;;;8.29;68.30;95641.53;5068496;28;20234;-63
2022/10/16 03:25:24;;;;;;;11.87;10.60;;;;;;;8.30;68.20;95650.22;5089245;28;20220;-63
2022/10/16 03:27:49;;;;;;;11.00;9.90;;;;;;;8.22;68.63;95645.59;5083178;28;20191;-64
2022/10/16 03:30:15;;;;;;;12.00;10.73;;;;;;;8.32;68.46;95650.94;5085714;28;20219;-64
2022/10/16 03:32:41;;;;;;;11.43;10.23;;;;;;;8.10;69.40;95650.03;5081511;28;20192;-64
2022/10/16 03:35:06;;;;;;;11.47;10.13;;;;;;;8.07;69.39;95649.41;5081627;28;20180;-64
2022/10/16 03:37:32;;;;;;;10.90;9.67;;;;;;;8.04;69.73;95652.28;5083646;28;20188;-63
2022/10/16 03:39:57;;;;;;;11.43;10.23;;;;;;;8.14;69.30;95645.38;5085109;28;20238;-64
2022/10/16 03:42:24;;;;;;;11.33;9.87;;;;;;;8.11;69.52;95646.44;5089885;28;20192;-63
2022/10/16 03:44:49;;;;;;;10.47;9.53;;;;;;;8.20;69.24;95655.34;5079834;28;20203;-63
2022/10/16 03:47:15;;;;;;;11.20;10.03;;;;;;;8.21;69.27;95648.34;5082352;28;20226;-65
2022/10/16 03:49:40;;;;;;;11.37;10.10;;;;;;;8.15;69.04;95645.25;5083337;28;20253;-65
2022/10/16 03:52:05;;;;;;;11.00;9.73;;;;;;;8.23;68.83;95644.63;5080603;28;20291;-64
2022/10/16 03:54:31;;;;;;;13.63;10.67;;;;;;;8.31;68.63;95654.50;5088955;28;20194;-63
2022/10/16 03:56:56;;;;;;;13.23;10.27;;;;;;;8.16;68.87;95635.59;5086765;28;20289;-64
2022/10/16 03:59:22;;;;;;;11.73;9.33;;;;;;;8.16;68.95;95636.44;5080283;28;20189;-64
2022/10/16 04:01:47;;;;;;;11.73;9.50;;;;;;;7.99;69.09;95644.78;5086840;28;20203;-64
2022/10/16 04:04:13;;;;;;;12.13;9.95;;;;;;;7.89;69.43;95636.84;5089352;28;20243;-64
2022/10/16 04:06:38;;;;;;;12.27;10.50;;;;;;;7.86;69.77;95629.22;5077992;28;20188;-65
2022/10/16 04:09:04;;;;;;;11.87;10.17;;;;;;;7.92;70.08;95638.38;5077213;28;20303;-65
2022/10/16 04:11:29;;;;;;;24.60;12.38;;;;;;;7.97;69.85;95638.84;5083810;28;20192;-66
2022/10/16 04:13:55;;;;;;;14.43;11.50;;;;;;;7.88;70.09;95644.78;5085334;28;20184;-66
2022/10/16 04:16:20;;;;;;;12.17;10.57;;;;;;;8.05;69.35;95646.94;5077656;28;20210;-66
2022/10/16 04:18:46;;;;;;;12.37;10.07;;;;;;;8.05;68.90;95638.25;5087158;28;20279;-66
2022/10/16 04:21:11;;;;;;;15.10;10.77;;;;;;;7.83;70.05;95647.78;5082787;28;20189;-66
2022/10/16 04:23:37;;;;;;;12.43;10.00;;;;;;;7.85;69.55;95642.41;5089827;28;20192;-66
2022/10/16 04:26:03;;;;;;;14.87;10.93;;;;;;;7.85;69.84;95650.28;5082019;28;20211;-65
2022/10/16 04:28:28;;;;;;;19.90;11.77;;;;;;;7.85;69.86;95656.34;5084358;28;20188;-65
2022/10/16 04:30:54;;;;;;;14.50;10.53;;;;;;;7.82;69.79;95661.00;5086678;28;20183;-65
2022/10/16 04:33:19;;;;;;;13.33;10.33;;;;;;;7.83;69.52;95652.16;5087548;28;20248;-65
2022/10/16 04:35:45;;;;;;;12.07;9.93;;;;;;;7.90;69.19;95669.09;5082853;28;20299;-66
2022/10/16 04:38:10;;;;;;;11.13;10.03;;;;;;;7.78;69.51;95659.53;5085173;28;20184;-65
2022/10/16 04:40:36;;;;;;;10.53;9.20;;;;;;;7.81;69.28;95662.78;5086837;28;20203;-66
2022/10/16 04:43:03;;;;;;;12.47;10.77;;;;;;;7.82;69.16;95672.28;5081248;28;20184;-66
2022/10/16 04:45:28;;;;;;;12.90;10.27;;;;;;;7.72;69.48;95656.47;5095571;28;20200;-66
2022/10/16 04:47:57;;;;;;;16.47;10.47;;;;;;;7.69;69.80;95663.72;5083794;28;20200;-65
2022/10/16 04:50:23;;;;;;;20.27;11.33;;;;;;;7.68;69.54;95668.13;5089954;28;20225;-65
2022/10/16 04:52:48;;;;;;;11.63;9.83;;;;;;;7.63;69.57;95665.03;5081993;28;20291;-64
2022/10/16 04:55:14;;;;;;;12.17;9.60;;;;;;;7.64;69.76;95669.28;5086244;28;20258;-65
2022/10/16 04:57:40;;;;;;;10.33;9.33;;;;;;;7.77;69.19;95668.38;5070500;28;20189;-65
2022/10/16 05:00:06;;;;;;;10.97;9.20;;;;;;;7.74;69.26;95672.88;5081217;28;20192;-65
2022/10/16 05:02:31;;;;;;;12.23;9.60;;;;;;;7.70;69.58;95679.31;5083583;28;20188;-65
2022/10/16 05:04:57;;;;;;;15.33;9.77;;;;;;;7.89;69.40;95688.38;5086412;28;20223;-66
2022/10/16 05:07:22;;;;;;;14.57;10.70;;;;;;;7.94;68.80;95691.47;5084910;28;20189;-66
2022/10/16 05:09:48;;;;;;;16.60;10.93;;;;;;;8.01;68.35;95684.78;5082843;28;20232;-66
2022/10/16 05:12:13;;;;;;;12.43;10.30;;;;;;;7.91;68.67;95691.69;5084818;28;20199;-65
2022/10/16 05:14:38;;;;;;;16.93;11.57;;;;;;;8.03;68.54;95690.75;5085975;28;20198;-65
2022/10/16 05:17:04;;;;;;;12.00;10.47;;;;;;;7.93;68.61;95690.63;5079890;28;20212;-65
2022/10/16 05:19:29;;;;;;;12.33;9.97;;;;;;;7.95;68.60;95699.19;5085651;28;20224;-64
2022/10/16 05:21:55;;;;;;;12.77;10.80;;;;;;;8.03;68.47;95701.22;5085392;28;20192;-64
2022/10/16 05:24:21;;;;;;;14.37;11.73;;;;;;;7.94;68.83;95709.81;5089257;28;20219;-65
2022/10/16 05:26:46;;;;;;;14.07;11.90;;;;;;;7.97;69.21;95700.88;5081750;28;20203;-65
2022/10/16 05:29:12;;;;;;;12.77;11.30;;;;;;;8.11;69.00;95709.31;5079587;28;20189;-64
2022/10/16 05:31:37;;;;;;;10.97;9.90;;;;;;;8.12;68.97;95705.72;5080256;28;20188;-64
2022/10/16 05:34:07;;;;;;;14.70;11.70;;;;;;;8.07;69.28;95707.03;5081382;28;20191;-64
2022/10/16 05:36:33;;;;;;;13.77;11.03;;;;;;;8.14;69.49;95703.00;5097218;28;20192;-64
2022/10/16 05:38:58;;;;;;;16.00;12.00;;;;;;;8.21;69.20;95703.38;5080877;28;20187;-64
2022/10/16 05:41:25;;;;;;;12.60;11.47;;;;;;;8.23;69.12;95715.38;5083097;28;20193;-64
2022/10/16 05:43:51;;;;;;;12.57;11.37;;;;;;;8.23;69.41;95712.75;5079118;28;20180;-64
2022/10/16 05:46:17;;;;;;;12.60;11.33;;;;;;;8.24;70.02;95705.75;5081171;28;20308;-65
2022/10/16 05:48:43;;;;;;;15.73;12.47;;;;;;;8.26;69.83;95709.91;5081109;28;20188;-65
2022/10/16 05:51:11;;;;;;;13.67;12.33;;;;;;;8.24;70.20;95717.06;5076483;28;20199;-65
2022/10/16 05:53:38;;;;;;;13.70;12.30;;;;;;;8.48;69.51;95721.34;5088730;28;20181;-65
2022/10/16 05:56:04;;;;;;;15.40;12.37;;;;;;;8.75;68.06;95719.13;5082989;28;20183;-64
2022/10/16 05:58:32;;;;;;;11.37;10.27;;;;;;;8.67;67.75;95718.91;5085811;28;20343;-64
2022/10/16 06:01:04;;;;;;;10.60;9.20;;;;;;;8.74;67.35;95732.34;5099236;28;20216;-65
2022/10/16 06:03:30;;;;;;;9.93;9.00;;;;;;;8.84;67.08;95742.00;5087717;28;20215;-65
2022/10/16 06:05:55;;;;;;;10.30;9.20;;;;;;;8.96;66.24;95734.09;5086903;28;20228;-64
2022/10/16 06:08:22;;;;;;;10.73;8.67;;;;;;;8.82;65.94;95746.53;5083733;28;20558;-64
2022/10/16 06:10:49;;;;;;;8.93;7.77;;;;;;;9.00;66.42;95751.25;5079449;28;20228;-64
2022/10/16 06:13:15;;;;;;;9.13;7.67;;;;;;;9.15;65.59;95755.25;5082947;28;20192;-64
2022/10/16 06:15:42;;;;;;;9.53;8.57;;;;;;;8.91;65.63;95752.00;5088209;28;20314;-64
2022/10/16 06:18:10;;;;;;;10.47;9.37;;;;;;;9.07;65.85;95754.22;5082738;28;20217;-64
2022/10/16 06:20:37;;;;;;;14.83;13.13;;;;;;;9.10;65.70;95746.94;5090623;28;20267;-64
2022/10/16 06:23:03;;;;;;;11.17;9.23;;;;;;;9.17;65.58;95761.22;5080327;28;20194;-63
2022/10/16 06:25:30;;;;;;;10.77;8.50;;;;;;;9.24;65.60;95757.13;5082031;28;20219;-64
2022/10/16 06:27:56;;;;;;;12.10;8.67;;;;;;;9.31;65.29;95760.09;5078025;28;20211;-64
2022/10/16 06:30:21;;;;;;;10.67;7.37;;;;;;;9.46;64.51;95752.72;5076710;28;20184;-64
2022/10/16 06:32:47;;;;;;;10.47;6.90;;;;;;;9.62;64.06;95757.53;5078354;28;20185;-64
2022/10/16 06:35:12;;;;;;;8.17;7.03;;;;;;;9.59;63.72;95745.50;5071956;28;20246;-65
2022/10/16 06:37:37;;;;;;;8.80;7.37;;;;;;;9.68;63.89;95759.69;5073983;28;20243;-64
2022/10/16 06:40:04;;;;;;;7.47;6.50;;;;;;;9.78;63.62;95760.56;5081701;28;20183;-63
2022/10/16 06:42:29;;;;;;;7.47;6.57;;;;;;;9.85;63.27;95759.09;5062899;28;20203;-64
2022/10/16 06:44:55;;;;;;;8.43;6.60;;;;;;;9.96;62.49;95762.59;5075671;28;20347;-65
2022/10/16 06:47:21;;;;;;;8.45;7.38;;;;;;;9.96;63.10;95766.06;5079474;28;20215;-66
2022/10/16 06:49:46;;;;;;;9.13;6.63;;;;;;;10.06;62.84;95774.00;5078816;28;20400;-65
2022/10/16 06:52:11;;;;;;;8.13;6.93;;;;;;;10.22;62.63;95768.28;5071568;28;20196;-64
2022/10/16 06:54:37;;;;;;;7.93;6.50;;;;;;;10.23;62.08;95780.44;5076227;28;20176;-65
2022/10/16 06:57:02;;;;;;;7.97;7.23;;;;;;;10.31;62.11;95786.75;5085214;28;20275;-64
2022/10/16 06:59:28;;;;;;;10.30;6.95;;;;;;;10.33;62.12;95784.81;5079560;28;20198;-63
2022/10/16 07:01:53;;;;;;;7.95;6.68;;;;;;;10.47;62.01;95798.59;5083670;28;20191;-64
2022/10/16 07:04:19;;;;;;;8.35;7.43;;;;;;;10.48;62.09;95787.94;5078866;28;20203;-65
2022/10/16 07:06:44;;;;;;;8.83;7.93;;;;;;;10.50;62.63;95790.41;5088221;28;20275;-66
2022/10/16 07:09:11;;;;;;;10.33;8.57;;;;;;;10.53;61.96;95780.50;5083402;28;20224;-65
2022/10/16 07:11:38;;;;;;;10.13;8.63;;;;;;;10.57;62.33;95796.81;5086434;28;20188;-66
2022/10/16 07:14:04;;;;;;;12.23;9.17;;;;;;;10.50;61.62;95788.63;5083578;28;20272;-66
2022/10/16 07:16:32;;;;;;;10.75;9.48;;;;;;;10.64;61.63;95789.22;5083642;28;20225;-66
2022/10/16 07:18:59;;;;;;;11.25;10.18;;;;;;;10.72;61.51;95797.28;5083923;28;20189;-65
2022/10/16 07:21:36;;;;;;;11.00;9.90;;;;;;;10.82;62.52;95795.53;5083759;28;20215;-66
2022/10/16 07:24:03;;;;;;;10.43;9.37;;;;;;;10.78;62.44;95796.78;5084373;28;20191;-66
2022/10/16 07:26:32;;;;;;;13.25;9.48;;;;;;;10.64;62.43;95805.88;5079242;28;20184;-67
2022/10/16 07:28:58;;;;;;;10.67;9.57;;;;;;;10.87;62.05;95800.38;5085433;28;20211;-67
2022/10/16 07:31:24;;;;;;;10.97;9.83;;;;;;;10.90;61.54;95802.75;5084730;28;20191;-66
2022/10/16 07:33:50;;;;;;;10.27;9.15;;;;;;;10.93;60.84;95800.69;5082512;28;20278;-66
2022/10/16 07:36:18;;;;;;;12.20;9.73;;;;;;;11.06;60.63;95802.22;5083399;28;20266;-66
2022/10/16 07:38:44;;;;;;;10.40;9.35;;;;;;;11.06;60.35;95808.31;5080709;28;20185;-66
2022/10/16 07:41:13;;;;;;;10.73;9.63;;;;;;;11.16;60.17;95801.28;5088241;28;20220;-65
2022/10/16 07:43:38;;;;;;;11.00;8.80;;;;;;;11.20;60.11;95807.09;5078821;28;20194;-65
2022/10/16 07:46:04;;;;;;;10.05;8.75;;;;;;;11.25;59.84;95810.16;5081395;28;20212;-66
2022/10/16 07:48:32;;;;;;;11.95;9.07;;;;;;;11.13;60.51;95808.63;5086709;28;20214;-66
2022/10/16 07:51:02;;;;;;;9.95;8.93;;;;;;;11.30;59.91;95801.84;5082164;28;20191;-65
2022/10/16 07:53:28;;;;;;;9.95;8.90;;;;;;;11.34;60.54;95814.63;5082455;28;20200;-65
2022/10/16 07:56:03;;;;;;;10.10;8.55;;;;;;;11.47;60.17;95815.19;5081665;28;20195;-66
2022/10/16 07:58:29;;;;;;;9.82;8.30;;;;;;;11.57;59.72;95811.72;5086782;28;20179;-65
2022/10/16 08:00:55;;;;;;;10.27;9.27;;;;;;;11.70;58.92;95814.91;5076199;28;20208;-63
2022/10/16 08:03:21;;;;;;;9.88;8.02;;;;;;;11.84;58.61;95809.22;5083937;28;20196;-63
2022/10/16 08:05:46;;;;;;;9.40;7.68;;;;;;;11.80;58.54;95809.63;5085469;28;20216;-63
2022/10/16 08:08:16;;;;;;;8.43;7.60;;;;;;;11.80;58.86;95805.19;5081163;28;20200;-63
2022/10/16 08:10:42;;;;;;;8.77;7.83;;;;;;;11.91;58.75;95810.34;5088532;28;20192;-63
2022/10/16 08:13:07;;;;;;;9.32;8.02;;;;;;;11.85;58.77;95805.59;5083564;28;20192;-63
2022/10/16 08:15:33;;;;;;;9.20;7.63;;;;;;;11.90;58.75;95816.59;5081732;28;20260;-63
2022/10/16 08:18:01;;;;;;;8.23;7.43;;;;;;;12.04;58.03;95806.59;5084365;28;20189;-63
2022/10/16 08:20:29;;;;;;;9.82;7.70;;;;;;;12.18;58.06;95807.94;5085102;28;20207;-63
2022/10/16 08:22:55;;;;;;;9.20;7.30;;;;;;;12.18;57.94;95802.69;5083070;28;20250;-64
2022/10/16 08:25:21;;;;;;;9.98;7.80;;;;;;;12.18;58.12;95803.50;5082808;28;20223;-63
2022/10/16 08:27:47;;;;;;;9.10;7.30;;;;;;;12.41;57.50;95806.66;5088259;28;20172;-63
2022/10/16 08:30:13;;;;;;;8.40;6.82;;;;;;;12.46;57.16;95804.41;5081719;28;20188;-63
2022/10/16 08:32:38;;;;;;;7.50;6.80;;;;;;;12.47;56.88;95802.59;5082787;28;20191;-63
2022/10/16 08:35:04;;;;;;;7.85;6.35;;;;;;;12.61;56.23;95802.13;5080365;28;20184;-63
2022/10/16 08:37:31;;;;;;;6.53;5.88;;;;;;;12.66;56.06;95799.06;5081233;28;20189;-63
2022/10/16 08:39:56;;;;;;;6.28;5.57;;;;;;;12.69;55.52;95796.13;5081955;28;20211;-63
2022/10/16 08:42:49;;;;;;;6.43;5.82;;;;;;;12.78;54.68;95800.53;5087075;28;20192;-63
2022/10/16 08:45:46;;;;;;;6.97;5.97;;;;;;;13.11;54.36;95807.03;5098190;28;20350;-63
2022/10/16 08:48:52;;;;;;;7.43;6.10;;;;;;;13.23;53.53;95808.50;5082139;28;20246;-64
2022/10/16 08:51:24;;;;;;;7.00;5.40;;;;;;;13.25;53.74;95810.97;4993324;28;20279;-64
2022/10/16 08:53:55;;;;;;;5.85;4.88;;;;;;;13.37;53.07;95801.88;4990664;28;20206;-63
2022/10/16 08:56:21;;;;;;;9.27;5.43;;;;;;;13.39;52.17;95801.72;4986920;28;20220;-61
2022/10/16 08:58:47;;;;;;;5.88;4.55;;;;;;;13.54;51.92;95804.69;5003183;28;20192;-61
2022/10/16 09:01:16;;;;;;;6.50;4.75;;;;;;;13.70;50.43;95817.22;4987643;28;20242;-62
2022/10/16 09:04:01;;;;;;;7.55;4.47;;;;;;;13.77;50.41;95813.00;4992791;28;20187;-62
2022/10/16 09:06:44;;;;;;;9.63;4.65;;;;;;;13.95;49.04;95813.78;5000943;28;20239;-62
2022/10/16 09:09:30;;;;;;;5.10;4.00;;;;;;;13.96;48.50;95812.00;4989140;28;20273;-63
2022/10/16 09:12:09;;;;;;;6.60;4.30;;;;;;;13.98;48.11;95805.59;5002682;28;20187;-62
2022/10/16 09:14:49;;;;;;;4.90;3.97;;;;;;;14.10;48.06;95809.63;4991995;28;20199;-63
2022/10/16 09:17:37;;;;;;;6.03;4.57;;;;;;;14.23;46.60;95809.22;4985919;28;20198;-63
2022/10/16 09:20:35;;;;;;;5.60;3.83;;;;;;;14.20;46.68;95803.44;4989483;28;20205;-63
2022/10/16 09:23:03;;;;;;;5.75;4.07;;;;;;;14.43;45.98;95799.25;4950471;28;20272;-63
2022/10/16 09:25:29;;;;;;;3.53;3.22;;;;;;;14.50;45.07;95799.47;4954174;28;20208;-63
2022/10/16 09:27:55;;;;;;;5.38;4.00;;;;;;;14.53;46.06;95805.31;5002712;28;20695;-63
2022/10/16 09:30:21;;;;;;;4.20;3.80;;;;;;;14.54;46.84;95806.13;4992782;28;20198;-63
2022/10/16 09:32:50;;;;;;;5.38;4.25;;;;;;;14.68;45.31;95802.91;5005692;28;20187;-63
2022/10/16 09:35:20;;;;;;;5.20;4.05;;;;;;;14.99;44.48;95799.72;5017007;28;20206;-64
2022/10/16 09:37:49;;;;;;;5.38;3.85;;;;;;;15.20;44.32;95794.84;4999390;28;20193;-63
2022/10/16 09:40:38;;;;;;;4.30;3.38;;;;;;;15.47;43.72;95795.56;5006703;28;20225;-64
2022/10/16 09:43:41;;;;;;;5.68;3.55;;;;;;;15.61;43.37;95799.38;5015754;28;20202;-64
2022/10/16 09:46:19;;;;;;;4.53;3.28;;;;;;;15.69;41.57;95795.94;5012146;28;20209;-64
2022/10/16 09:48:48;;;;;;;4.38;3.42;;;;;;;15.56;41.33;95793.78;5023159;28;20277;-63
2022/10/16 09:51:23;;;;;;;3.90;3.50;;;;;;;15.68;42.48;95786.31;5005696;28;20187;-64
2022/10/16 09:53:55;;;;;;;3.65;3.35;;;;;;;15.80;42.35;95785.88;5027715;28;20201;-64
2022/10/16 09:56:23;;;;;;;3.60;3.30;;;;;;;15.96;41.31;95790.34;5015647;28;20301;-65
2022/10/16 09:58:57;;;;;;;4.53;3.58;;;;;;;15.87;40.24;95786.84;5013515;28;20244;-64
2022/10/16 10:01:29;;;;;;;5.13;3.75;;;;;;;15.77;40.69;95783.56;5097911;28;20242;-63
2022/10/16 10:04:00;;;;;;;3.85;3.55;;;;;;;15.86;41.06;95785.19;5091209;28;20573;-63
2022/10/16 10:06:40;;;;;;;3.80;3.50;;;;;;;16.07;41.29;95770.63;5091238;28;20232;-63
2022/10/16 10:09:15;;;;;;;3.45;3.15;;;;;;;16.26;40.17;95770.25;5071362;28;20285;-63
2022/10/16 10:11:45;;;;;;;3.20;2.85;;;;;;;16.41;39.05;95766.88;5085009;28;20191;-62
2022/10/16 10:14:18;;;;;;;4.85;3.05;;;;;;;16.38;38.85;95761.94;5081924;28;20188;-63
2022/10/16 10:16:44;;;;;;;6.57;3.33;;;;;;;16.53;38.92;95763.72;5087423;28;20290;-63
2022/10/16 10:19:18;;;;;;;5.63;3.50;;;;;;;16.73;38.38;95766.81;5087695;28;20187;-63
2022/10/16 10:21:44;;;;;;;4.05;2.95;;;;;;;16.78;37.88;95768.16;5080330;28;20188;-64
2022/10/16 10:24:14;;;;;;;3.75;3.15;;;;;;;16.71;37.99;95763.50;5081362;28;20191;-65
2022/10/16 10:26:48;;;;;;;4.95;3.10;;;;;;;16.87;39.43;95764.47;5090616;28;20184;-64
2022/10/16 10:29:25;;;;;;;5.18;3.58;;;;;;;16.53;37.82;95762.88;5083039;28;20257;-64
2022/10/16 10:32:03;;;;;;;4.70;3.50;;;;;;;16.43;35.78;95760.41;5088163;28;20183;-64
2022/10/16 10:35:06;;;;;;;4.70;3.67;;;;;;;16.34;36.28;95761.44;5087973;28;20184;-65
2022/10/16 10:37:47;;;;;;;3.83;3.15;;;;;;;16.55;36.52;95758.25;5013033;28;20217;-64
2022/10/16 10:40:31;;;;;;;5.22;3.53;;;;;;;16.76;36.26;95758.50;5014953;28;20288;-63
2022/10/16 10:42:57;;;;;;;4.40;3.58;;;;;;;16.93;35.86;95753.16;5013134;28;20179;-63
2022/10/16 10:45:40;;;;;;;3.50;3.20;;;;;;;17.23;36.06;95756.00;5010990;28;20214;-63
2022/10/16 10:48:31;;;;;;;3.08;2.65;;;;;;;17.42;34.74;95744.91;5011349;28;20205;-63
2022/10/16 10:51:18;;;;;;;3.90;3.20;;;;;;;17.58;35.06;95744.78;5012575;28;20198;-63
2022/10/16 10:54:02;;;;;;;3.55;3.25;;;;;;;17.84;35.13;95735.66;5030354;28;20281;-64
2022/10/16 10:56:47;;;;;;;3.25;2.95;;;;;;;17.96;35.17;95730.72;5013556;28;20212;-63
2022/10/16 10:59:35;;;;;;;3.50;3.20;;;;;;;18.11;33.65;95736.91;5014051;28;20202;-63
2022/10/16 11:02:48;;;;;;;3.13;2.53;;;;;;;18.11;31.87;95731.59;5007589;28;20556;-63
2022/10/16 11:05:35;;;;;;;2.60;2.40;;;;;;;18.29;33.35;95725.94;4929732;29;20202;-63
2022/10/16 11:08:08;;;;;;;4.25;2.70;;;;;;;18.62;32.92;95722.91;4928028;29;20292;-62
2022/10/16 11:10:59;;;;;;;2.90;2.60;;;;;;;18.70;30.98;95722.81;4930638;29;20217;-62
2022/10/16 11:14:20;;;;;;;3.40;2.67;;;;;;;18.81;30.32;95718.88;4940248;28;20206;-64
2022/10/16 11:16:54;;;;;;;4.00;2.65;;;;;;;18.85;31.17;95718.31;4952107;28;20207;-64
2022/10/16 11:19:33;;;;;;;2.35;2.00;;;;;;;19.12;30.04;95715.97;4953599;28;20200;-63
2022/10/16 11:22:28;;;;;;;2.60;2.40;;;;;;;19.36;29.45;95712.94;4955555;28;20204;-63
2022/10/16 11:25:17;;;;;;;2.80;2.45;;;;;;;19.49;29.60;95719.44;4965889;28;20221;-63
2022/10/16 11:27:54;;;;;;;3.20;2.60;;;;;;;19.69;29.35;95706.31;4955589;28;20227;-63
2022/10/16 11:30:25;;;;;;;4.25;2.40;;;;;;;19.81;28.33;95702.94;4966786;28;20223;-63
2022/10/16 11:33:12;;;;;;;2.78;2.50;;;;;;;19.30;29.65;95710.19;4952072;28;20200;-63
2022/10/16 11:35:37;;;;;;;3.15;2.72;;;;;;;18.80;30.43;95703.91;4985226;28;20199;-63
2022/10/16 11:38:12;;;;;;;2.67;2.47;;;;;;;19.39;30.52;95709.09;5026587;28;20222;-63
2022/10/16 11:40:41;;;;;;;2.35;1.90;;;;;;;19.70;28.53;95710.63;5007170;28;20193;-63
2022/10/16 11:43:19;;;;;;;2.30;1.90;;;;;;;20.15;27.69;95712.03;5009710;28;20212;-63
2022/10/16 11:45:48;;;;;;;2.83;2.55;;;;;;;20.44;27.07;95712.84;5020297;28;20276;-63